sensor_id;sensor_type;location;lat;lon;timestamp;temperature;humidity
52513;DHT22;38422;53.172;6.974;2024-03-22T00:01:54;9.50;99.90
52513;DHT22;38422;53.172;6.974;2024-03-22T00:04:20;9.50;99.90
52513;DHT22;38422;53.172;6.974;2024-03-22T00:06:47;9.50;99.90
52513;DHT22;38422;53.172;6.974;2024-03-22T00:09:14;9.50;99.90
52513;DHT22;38422;53.172;6.974;2024-03-22T00:11:40;9.50;99.90
52513;DHT22;38422;53.172;6.974;2024-03-22T00:14:06;9.50;99.90
52513;DHT22;38422;53.172;6.974;2024-03-22T00:16:33;9.50;99.90
52513;DHT22;38422;53.172;6.974;2024-03-22T00:18:59;9.50;99.90
52513;DHT22;38422;53.172;6.974;2024-03-22T00:21:24;9.50;99.90
52513;DHT22;38422;53.172;6.974;2024-03-22T00:23:50;9.50;99.90
52513;DHT22;38422;53.172;6.974;2024-03-22T00:26:16;9.50;99.90
52513;DHT22;38422;53.172;6.974;2024-03-22T00:28:42;9.50;99.90
52513;DHT22;38422;53.172;6.974;2024-03-22T00:31:08;9.50;99.90
52513;DHT22;38422;53.172;6.974;2024-03-22T00:33:34;9.50;99.90
52513;DHT22;38422;53.172;6.974;2024-03-22T00:36:00;9.50;99.90
52513;DHT22;38422;53.172;6.974;2024-03-22T00:38:25;9.50;99.90
52513;DHT22;38422;53.172;6.974;2024-03-22T00:40:51;9.50;99.90
52513;DHT22;38422;53.172;6.974;2024-03-22T00:43:17;9.50;99.90
52513;DHT22;38422;53.172;6.974;2024-03-22T00:45:43;9.50;99.90
52513;DHT22;38422;53.172;6.974;2024-03-22T00:48:08;9.50;99.90
52513;DHT22;38422;53.172;6.974;2024-03-22T00:50:34;9.50;99.90
52513;DHT22;38422;53.172;6.974;2024-03-22T00:53:00;9.50;99.90
52513;DHT22;38422;53.172;6.974;2024-03-22T00:55:28;9.60;99.90
52513;DHT22;38422;53.172;6.974;2024-03-22T00:57:53;9.60;99.90
52513;DHT22;38422;53.172;6.974;2024-03-22T01:00:19;9.50;99.90
52513;DHT22;38422;53.172;6.974;2024-03-22T01:02:45;9.60;99.90
52513;DHT22;38422;53.172;6.974;2024-03-22T01:05:11;9.60;99.90
52513;DHT22;38422;53.172;6.974;2024-03-22T01:07:37;9.60;99.90
52513;DHT22;38422;53.172;6.974;2024-03-22T01:10:04;9.60;99.90
52513;DHT22;38422;53.172;6.974;2024-03-22T01:12:30;9.60;99.90
52513;DHT22;38422;53.172;6.974;2024-03-22T01:14:56;9.60;99.90
52513;DHT22;38422;53.172;6.974;2024-03-22T01:17:22;9.60;99.90
52513;DHT22;38422;53.172;6.974;2024-03-22T01:19:48;9.60;99.90
52513;DHT22;38422;53.172;6.974;2024-03-22T01:22:14;9.60;99.90
52513;DHT22;38422;53.172;6.974;2024-03-22T01:24:39;9.60;99.90
52513;DHT22;38422;53.172;6.974;2024-03-22T01:27:05;9.60;99.90
52513;DHT22;38422;53.172;6.974;2024-03-22T01:29:31;9.70;99.90
52513;DHT22;38422;53.172;6.974;2024-03-22T01:32:00;9.70;99.90
52513;DHT22;38422;53.172;6.974;2024-03-22T01:34:25;9.70;99.90
52513;DHT22;38422;53.172;6.974;2024-03-22T01:36:52;9.70;99.90
52513;DHT22;38422;53.172;6.974;2024-03-22T01:39:19;9.70;99.90
52513;DHT22;38422;53.172;6.974;2024-03-22T01:41:47;9.70;99.90
52513;DHT22;38422;53.172;6.974;2024-03-22T01:44:13;9.70;99.90
52513;DHT22;38422;53.172;6.974;2024-03-22T01:46:40;9.70;99.90
52513;DHT22;38422;53.172;6.974;2024-03-22T01:49:07;9.80;99.90
52513;DHT22;38422;53.172;6.974;2024-03-22T01:51:32;9.80;99.90
52513;DHT22;38422;53.172;6.974;2024-03-22T01:54:03;9.80;99.90
52513;DHT22;38422;53.172;6.974;2024-03-22T01:56:30;9.80;99.90
52513;DHT22;38422;53.172;6.974;2024-03-22T01:58:56;9.80;99.90
52513;DHT22;38422;53.172;6.974;2024-03-22T02:01:23;9.80;99.90
52513;DHT22;38422;53.172;6.974;2024-03-22T02:03:49;9.80;99.90
52513;DHT22;38422;53.172;6.974;2024-03-22T02:06:14;9.90;99.90
52513;DHT22;38422;53.172;6.974;2024-03-22T02:08:40;9.90;99.90
52513;DHT22;38422;53.172;6.974;2024-03-22T02:11:08;9.90;99.90
52513;DHT22;38422;53.172;6.974;2024-03-22T02:13:34;9.90;99.90
52513;DHT22;38422;53.172;6.974;2024-03-22T02:16:03;9.90;99.90
52513;DHT22;38422;53.172;6.974;2024-03-22T02:18:29;9.90;99.90
52513;DHT22;38422;53.172;6.974;2024-03-22T02:20:56;9.90;99.90
52513;DHT22;38422;53.172;6.974;2024-03-22T02:23:33;10.00;99.90
52513;DHT22;38422;53.172;6.974;2024-03-22T02:26:00;10.00;99.90
52513;DHT22;38422;53.172;6.974;2024-03-22T02:28:26;10.00;99.90
52513;DHT22;38422;53.172;6.974;2024-03-22T02:30:51;10.00;99.90
52513;DHT22;38422;53.172;6.974;2024-03-22T02:33:17;10.00;99.90
52513;DHT22;38422;53.172;6.974;2024-03-22T02:35:43;10.00;99.90
52513;DHT22;38422;53.172;6.974;2024-03-22T02:38:08;10.00;99.90
52513;DHT22;38422;53.172;6.974;2024-03-22T02:40:34;10.00;99.90
52513;DHT22;38422;53.172;6.974;2024-03-22T02:43:00;10.10;99.90
52513;DHT22;38422;53.172;6.974;2024-03-22T02:45:26;10.00;99.90
52513;DHT22;38422;53.172;6.974;2024-03-22T02:47:52;10.00;99.90
52513;DHT22;38422;53.172;6.974;2024-03-22T02:50:18;10.10;99.90
52513;DHT22;38422;53.172;6.974;2024-03-22T02:52:43;10.10;99.90
52513;DHT22;38422;53.172;6.974;2024-03-22T02:55:09;10.10;99.90
52513;DHT22;38422;53.172;6.974;2024-03-22T02:57:34;10.10;99.90
52513;DHT22;38422;53.172;6.974;2024-03-22T03:00:00;10.10;99.90
52513;DHT22;38422;53.172;6.974;2024-03-22T03:02:26;10.10;99.90
52513;DHT22;38422;53.172;6.974;2024-03-22T03:04:52;10.10;99.90
52513;DHT22;38422;53.172;6.974;2024-03-22T03:07:17;10.10;99.90
52513;DHT22;38422;53.172;6.974;2024-03-22T03:09:43;10.10;99.90
52513;DHT22;38422;53.172;6.974;2024-03-22T03:12:08;10.10;99.90
52513;DHT22;38422;53.172;6.974;2024-03-22T03:14:34;10.10;99.90
52513;DHT22;38422;53.172;6.974;2024-03-22T03:17:00;10.10;99.90
52513;DHT22;38422;53.172;6.974;2024-03-22T03:19:25;10.10;99.90
52513;DHT22;38422;53.172;6.974;2024-03-22T03:21:51;10.10;99.90
52513;DHT22;38422;53.172;6.974;2024-03-22T03:24:17;10.10;99.90
52513;DHT22;38422;53.172;6.974;2024-03-22T03:26:42;10.10;99.90
52513;DHT22;38422;53.172;6.974;2024-03-22T03:29:08;10.10;99.90
52513;DHT22;38422;53.172;6.974;2024-03-22T03:31:34;10.10;99.90
52513;DHT22;38422;53.172;6.974;2024-03-22T03:33:59;10.10;99.90
52513;DHT22;38422;53.172;6.974;2024-03-22T03:36:25;10.10;99.90
52513;DHT22;38422;53.172;6.974;2024-03-22T03:38:51;10.10;99.90
52513;DHT22;38422;53.172;6.974;2024-03-22T03:41:17;10.10;99.90
52513;DHT22;38422;53.172;6.974;2024-03-22T03:43:42;10.10;99.90
52513;DHT22;38422;53.172;6.974;2024-03-22T03:46:08;10.10;99.90
52513;DHT22;38422;53.172;6.974;2024-03-22T03:48:34;10.10;99.90
52513;DHT22;38422;53.172;6.974;2024-03-22T03:50:59;10.10;99.90
52513;DHT22;38422;53.172;6.974;2024-03-22T03:53:29;10.10;99.90
52513;DHT22;38422;53.172;6.974;2024-03-22T03:55:55;10.10;99.90
52513;DHT22;38422;53.172;6.974;2024-03-22T03:58:20;10.10;99.90
52513;DHT22;38422;53.172;6.974;2024-03-22T04:00:46;10.10;99.90
52513;DHT22;38422;53.172;6.974;2024-03-22T04:03:12;10.10;99.90
52513;DHT22;38422;53.172;6.974;2024-03-22T04:05:37;10.10;99.90
52513;DHT22;38422;53.172;6.974;2024-03-22T04:08:03;10.10;99.90
52513;DHT22;38422;53.172;6.974;2024-03-22T04:10:29;10.10;99.90
52513;DHT22;38422;53.172;6.974;2024-03-22T04:12:55;10.10;99.90
52513;DHT22;38422;53.172;6.974;2024-03-22T04:15:20;10.10;99.90
52513;DHT22;38422;53.172;6.974;2024-03-22T04:17:46;10.10;99.90
52513;DHT22;38422;53.172;6.974;2024-03-22T04:20:12;10.10;99.90
52513;DHT22;38422;53.172;6.974;2024-03-22T04:22:37;10.10;99.90
52513;DHT22;38422;53.172;6.974;2024-03-22T04:25:04;10.10;99.90
52513;DHT22;38422;53.172;6.974;2024-03-22T04:27:29;10.10;99.90
52513;DHT22;38422;53.172;6.974;2024-03-22T04:29:55;10.10;99.90
52513;DHT22;38422;53.172;6.974;2024-03-22T04:32:21;10.10;99.90
52513;DHT22;38422;53.172;6.974;2024-03-22T04:34:46;10.10;99.90
52513;DHT22;38422;53.172;6.974;2024-03-22T04:37:12;10.10;99.90
52513;DHT22;38422;53.172;6.974;2024-03-22T04:39:39;10.10;99.90
52513;DHT22;38422;53.172;6.974;2024-03-22T04:42:05;10.10;99.90
52513;DHT22;38422;53.172;6.974;2024-03-22T04:44:31;10.10;99.90
52513;DHT22;38422;53.172;6.974;2024-03-22T04:46:56;10.10;99.90
52513;DHT22;38422;53.172;6.974;2024-03-22T04:49:23;10.10;99.90
52513;DHT22;38422;53.172;6.974;2024-03-22T04:51:48;10.10;99.90
52513;DHT22;38422;53.172;6.974;2024-03-22T04:54:14;10.10;99.90
52513;DHT22;38422;53.172;6.974;2024-03-22T04:56:40;10.10;99.90
52513;DHT22;38422;53.172;6.974;2024-03-22T04:59:06;10.10;99.90
52513;DHT22;38422;53.172;6.974;2024-03-22T05:01:31;10.10;99.90
52513;DHT22;38422;53.172;6.974;2024-03-22T05:03:57;10.10;99.90
52513;DHT22;38422;53.172;6.974;2024-03-22T05:06:23;10.10;99.90
52513;DHT22;38422;53.172;6.974;2024-03-22T05:08:48;10.10;99.90
52513;DHT22;38422;53.172;6.974;2024-03-22T05:11:14;10.10;99.90
52513;DHT22;38422;53.172;6.974;2024-03-22T05:13:40;10.10;99.90
52513;DHT22;38422;53.172;6.974;2024-03-22T05:16:06;10.10;99.90
52513;DHT22;38422;53.172;6.974;2024-03-22T05:18:32;10.10;99.90
52513;DHT22;38422;53.172;6.974;2024-03-22T05:20:58;10.10;99.90
52513;DHT22;38422;53.172;6.974;2024-03-22T05:23:23;10.10;99.90
52513;DHT22;38422;53.172;6.974;2024-03-22T05:25:49;10.10;99.90
52513;DHT22;38422;53.172;6.974;2024-03-22T05:28:15;10.10;99.90
52513;DHT22;38422;53.172;6.974;2024-03-22T05:30:41;10.20;99.90
52513;DHT22;38422;53.172;6.974;2024-03-22T05:33:06;10.10;99.90
52513;DHT22;38422;53.172;6.974;2024-03-22T05:35:32;10.10;99.90
52513;DHT22;38422;53.172;6.974;2024-03-22T05:37:57;10.20;99.90
52513;DHT22;38422;53.172;6.974;2024-03-22T05:40:23;10.20;99.90
52513;DHT22;38422;53.172;6.974;2024-03-22T05:42:49;10.20;99.90
52513;DHT22;38422;53.172;6.974;2024-03-22T05:45:14;10.20;99.90
52513;DHT22;38422;53.172;6.974;2024-03-22T05:47:40;10.20;99.90
52513;DHT22;38422;53.172;6.974;2024-03-22T05:50:06;10.20;99.90
52513;DHT22;38422;53.172;6.974;2024-03-22T05:52:34;10.20;99.90
52513;DHT22;38422;53.172;6.974;2024-03-22T05:54:59;10.20;99.90
52513;DHT22;38422;53.172;6.974;2024-03-22T05:57:25;10.20;99.90
52513;DHT22;38422;53.172;6.974;2024-03-22T05:59:51;10.20;99.90
52513;DHT22;38422;53.172;6.974;2024-03-22T06:02:18;10.20;99.90
52513;DHT22;38422;53.172;6.974;2024-03-22T06:04:44;10.20;99.90
52513;DHT22;38422;53.172;6.974;2024-03-22T06:07:10;10.10;99.90
52513;DHT22;38422;53.172;6.974;2024-03-22T06:09:36;10.10;99.90
52513;DHT22;38422;53.172;6.974;2024-03-22T06:12:17;10.10;99.90
52513;DHT22;38422;53.172;6.974;2024-03-22T06:14:43;10.10;99.90
52513;DHT22;38422;53.172;6.974;2024-03-22T06:17:10;10.00;99.90
52513;DHT22;38422;53.172;6.974;2024-03-22T06:19:36;10.00;99.90
52513;DHT22;38422;53.172;6.974;2024-03-22T06:22:02;10.00;99.90
52513;DHT22;38422;53.172;6.974;2024-03-22T06:24:28;10.00;99.90
52513;DHT22;38422;53.172;6.974;2024-03-22T06:26:54;10.00;99.90
52513;DHT22;38422;53.172;6.974;2024-03-22T06:29:20;10.00;99.90
52513;DHT22;38422;53.172;6.974;2024-03-22T06:31:46;10.00;99.90
52513;DHT22;38422;53.172;6.974;2024-03-22T06:34:12;9.90;99.90
52513;DHT22;38422;53.172;6.974;2024-03-22T06:36:38;9.90;99.90
52513;DHT22;38422;53.172;6.974;2024-03-22T06:39:03;9.90;99.90
52513;DHT22;38422;53.172;6.974;2024-03-22T06:41:32;9.90;99.90
52513;DHT22;38422;53.172;6.974;2024-03-22T06:43:58;9.90;99.90
52513;DHT22;38422;53.172;6.974;2024-03-22T06:46:24;9.90;99.90
52513;DHT22;38422;53.172;6.974;2024-03-22T06:48:50;9.90;99.90
52513;DHT22;38422;53.172;6.974;2024-03-22T06:51:16;9.90;99.90
52513;DHT22;38422;53.172;6.974;2024-03-22T06:53:42;9.90;99.90
52513;DHT22;38422;53.172;6.974;2024-03-22T06:56:07;9.90;99.90
52513;DHT22;38422;53.172;6.974;2024-03-22T06:58:38;9.90;99.90
52513;DHT22;38422;53.172;6.974;2024-03-22T07:01:03;9.90;99.90
52513;DHT22;38422;53.172;6.974;2024-03-22T07:03:29;9.90;99.90
52513;DHT22;38422;53.172;6.974;2024-03-22T07:05:55;9.90;99.90
52513;DHT22;38422;53.172;6.974;2024-03-22T07:08:21;9.90;99.90
52513;DHT22;38422;53.172;6.974;2024-03-22T07:10:47;9.90;99.90
52513;DHT22;38422;53.172;6.974;2024-03-22T07:13:12;9.90;99.90
52513;DHT22;38422;53.172;6.974;2024-03-22T07:15:38;9.90;99.90
52513;DHT22;38422;53.172;6.974;2024-03-22T07:18:04;9.90;99.90
52513;DHT22;38422;53.172;6.974;2024-03-22T07:20:31;9.90;99.90
52513;DHT22;38422;53.172;6.974;2024-03-22T07:22:56;9.90;99.90
52513;DHT22;38422;53.172;6.974;2024-03-22T07:25:22;9.90;99.90
52513;DHT22;38422;53.172;6.974;2024-03-22T07:27:48;9.90;99.90
52513;DHT22;38422;53.172;6.974;2024-03-22T07:30:14;9.90;99.90
52513;DHT22;38422;53.172;6.974;2024-03-22T07:32:40;9.90;99.90
52513;DHT22;38422;53.172;6.974;2024-03-22T07:35:06;9.90;99.90
52513;DHT22;38422;53.172;6.974;2024-03-22T07:37:33;9.90;99.90
52513;DHT22;38422;53.172;6.974;2024-03-22T07:40:01;9.90;99.90
52513;DHT22;38422;53.172;6.974;2024-03-22T07:42:27;9.90;99.90
52513;DHT22;38422;53.172;6.974;2024-03-22T07:44:53;9.90;99.90
52513;DHT22;38422;53.172;6.974;2024-03-22T07:47:18;9.90;99.90
52513;DHT22;38422;53.172;6.974;2024-03-22T07:49:45;9.90;99.90
52513;DHT22;38422;53.172;6.974;2024-03-22T07:52:10;9.90;99.90
52513;DHT22;38422;53.172;6.974;2024-03-22T07:54:36;9.90;99.90
52513;DHT22;38422;53.172;6.974;2024-03-22T07:57:02;9.90;99.90
52513;DHT22;38422;53.172;6.974;2024-03-22T07:59:28;9.90;99.90
52513;DHT22;38422;53.172;6.974;2024-03-22T08:01:53;9.90;99.90
52513;DHT22;38422;53.172;6.974;2024-03-22T08:04:19;9.90;99.90
52513;DHT22;38422;53.172;6.974;2024-03-22T08:06:46;9.90;99.90
52513;DHT22;38422;53.172;6.974;2024-03-22T08:09:11;9.90;99.90
52513;DHT22;38422;53.172;6.974;2024-03-22T08:11:37;9.90;99.90
52513;DHT22;38422;53.172;6.974;2024-03-22T08:14:02;9.90;99.90
52513;DHT22;38422;53.172;6.974;2024-03-22T08:16:32;9.90;99.90
52513;DHT22;38422;53.172;6.974;2024-03-22T08:18:58;9.90;99.90
52513;DHT22;38422;53.172;6.974;2024-03-22T08:21:24;9.90;99.90
52513;DHT22;38422;53.172;6.974;2024-03-22T08:23:50;9.90;99.90
52513;DHT22;38422;53.172;6.974;2024-03-22T08:26:16;9.90;99.90
52513;DHT22;38422;53.172;6.974;2024-03-22T08:28:42;9.90;99.90
52513;DHT22;38422;53.172;6.974;2024-03-22T08:31:08;9.90;99.90
52513;DHT22;38422;53.172;6.974;2024-03-22T08:33:33;10.00;99.90
52513;DHT22;38422;53.172;6.974;2024-03-22T08:35:59;10.00;99.90
52513;DHT22;38422;53.172;6.974;2024-03-22T08:38:26;10.00;99.90
52513;DHT22;38422;53.172;6.974;2024-03-22T08:40:52;10.00;99.90
52513;DHT22;38422;53.172;6.974;2024-03-22T08:43:18;10.00;99.90
52513;DHT22;38422;53.172;6.974;2024-03-22T08:45:44;10.00;99.90
52513;DHT22;38422;53.172;6.974;2024-03-22T08:48:10;10.00;99.90
52513;DHT22;38422;53.172;6.974;2024-03-22T08:50:35;10.00;99.90
52513;DHT22;38422;53.172;6.974;2024-03-22T08:53:01;10.00;99.90
52513;DHT22;38422;53.172;6.974;2024-03-22T08:55:30;10.00;99.90
52513;DHT22;38422;53.172;6.974;2024-03-22T08:57:56;10.00;99.90
52513;DHT22;38422;53.172;6.974;2024-03-22T09:00:21;10.00;99.90
52513;DHT22;38422;53.172;6.974;2024-03-22T09:02:47;10.00;99.90
52513;DHT22;38422;53.172;6.974;2024-03-22T09:05:13;10.00;99.90
52513;DHT22;38422;53.172;6.974;2024-03-22T09:07:38;10.00;99.90
52513;DHT22;38422;53.172;6.974;2024-03-22T09:10:05;10.10;99.90
52513;DHT22;38422;53.172;6.974;2024-03-22T09:12:31;10.10;99.90
52513;DHT22;38422;53.172;6.974;2024-03-22T09:14:57;10.10;99.90
52513;DHT22;38422;53.172;6.974;2024-03-22T09:17:23;10.10;99.90
52513;DHT22;38422;53.172;6.974;2024-03-22T09:19:49;10.10;99.90
52513;DHT22;38422;53.172;6.974;2024-03-22T09:22:14;10.20;99.90
52513;DHT22;38422;53.172;6.974;2024-03-22T09:24:43;10.20;99.90
52513;DHT22;38422;53.172;6.974;2024-03-22T09:27:08;10.20;99.90
52513;DHT22;38422;53.172;6.974;2024-03-22T09:29:38;10.30;99.90
52513;DHT22;38422;53.172;6.974;2024-03-22T09:32:04;10.30;99.90
52513;DHT22;38422;53.172;6.974;2024-03-22T09:34:30;10.30;99.90
52513;DHT22;38422;53.172;6.974;2024-03-22T09:36:57;10.30;99.90
52513;DHT22;38422;53.172;6.974;2024-03-22T09:39:23;10.30;99.90
52513;DHT22;38422;53.172;6.974;2024-03-22T09:41:50;10.30;99.90
52513;DHT22;38422;53.172;6.974;2024-03-22T09:44:18;10.30;99.90
52513;DHT22;38422;53.172;6.974;2024-03-22T09:46:47;10.30;99.90
52513;DHT22;38422;53.172;6.974;2024-03-22T09:49:13;10.30;99.90
52513;DHT22;38422;53.172;6.974;2024-03-22T09:51:41;10.30;99.90
52513;DHT22;38422;53.172;6.974;2024-03-22T09:54:09;10.30;99.90
52513;DHT22;38422;53.172;6.974;2024-03-22T09:56:35;10.30;99.90
52513;DHT22;38422;53.172;6.974;2024-03-22T09:59:02;10.30;99.90
52513;DHT22;38422;53.172;6.974;2024-03-22T10:01:29;10.30;99.90
52513;DHT22;38422;53.172;6.974;2024-03-22T10:03:55;10.30;99.90
52513;DHT22;38422;53.172;6.974;2024-03-22T10:06:21;10.30;99.90
52513;DHT22;38422;53.172;6.974;2024-03-22T10:08:47;10.30;99.90
52513;DHT22;38422;53.172;6.974;2024-03-22T10:11:13;10.30;99.90
52513;DHT22;38422;53.172;6.974;2024-03-22T10:13:38;10.30;99.90
52513;DHT22;38422;53.172;6.974;2024-03-22T10:16:04;10.30;99.90
52513;DHT22;38422;53.172;6.974;2024-03-22T10:18:32;10.40;99.90
52513;DHT22;38422;53.172;6.974;2024-03-22T10:21:05;10.40;99.90
52513;DHT22;38422;53.172;6.974;2024-03-22T10:23:31;10.50;99.90
52513;DHT22;38422;53.172;6.974;2024-03-22T10:25:58;10.50;99.90
52513;DHT22;38422;53.172;6.974;2024-03-22T10:28:24;10.50;99.90
52513;DHT22;38422;53.172;6.974;2024-03-22T10:30:51;10.50;99.90
52513;DHT22;38422;53.172;6.974;2024-03-22T10:33:21;10.60;99.90
52513;DHT22;38422;53.172;6.974;2024-03-22T10:35:52;10.60;99.90
52513;DHT22;38422;53.172;6.974;2024-03-22T10:38:20;10.70;99.90
52513;DHT22;38422;53.172;6.974;2024-03-22T10:40:46;10.70;99.90
52513;DHT22;38422;53.172;6.974;2024-03-22T10:43:15;10.70;99.90
52513;DHT22;38422;53.172;6.974;2024-03-22T10:45:42;10.70;99.90
52513;DHT22;38422;53.172;6.974;2024-03-22T10:48:12;10.70;99.90
52513;DHT22;38422;53.172;6.974;2024-03-22T10:50:41;10.80;99.90
52513;DHT22;38422;53.172;6.974;2024-03-22T10:53:19;10.80;99.90
52513;DHT22;38422;53.172;6.974;2024-03-22T10:55:50;10.80;99.90
52513;DHT22;38422;53.172;6.974;2024-03-22T10:58:26;10.80;99.90
52513;DHT22;38422;53.172;6.974;2024-03-22T11:00:53;10.80;99.90
52513;DHT22;38422;53.172;6.974;2024-03-22T11:03:23;10.70;99.90
52513;DHT22;38422;53.172;6.974;2024-03-22T11:05:54;10.70;99.90
52513;DHT22;38422;53.172;6.974;2024-03-22T11:08:30;10.80;99.90
52513;DHT22;38422;53.172;6.974;2024-03-22T11:11:10;10.80;99.90
52513;DHT22;38422;53.172;6.974;2024-03-22T11:13:36;10.80;99.90
52513;DHT22;38422;53.172;6.974;2024-03-22T11:16:02;10.80;99.90
52513;DHT22;38422;53.172;6.974;2024-03-22T11:18:28;10.80;99.90
52513;DHT22;38422;53.172;6.974;2024-03-22T11:20:54;10.90;99.90
52513;DHT22;38422;53.172;6.974;2024-03-22T11:23:19;10.90;99.90
52513;DHT22;38422;53.172;6.974;2024-03-22T11:25:45;10.90;99.90
52513;DHT22;38422;53.172;6.974;2024-03-22T11:28:12;11.00;99.90
52513;DHT22;38422;53.172;6.974;2024-03-22T11:30:37;10.90;99.90
52513;DHT22;38422;53.172;6.974;2024-03-22T11:33:04;11.00;99.90
52513;DHT22;38422;53.172;6.974;2024-03-22T11:35:34;10.90;99.90
52513;DHT22;38422;53.172;6.974;2024-03-22T11:38:00;10.90;99.90
52513;DHT22;38422;53.172;6.974;2024-03-22T11:40:26;11.00;99.90
52513;DHT22;38422;53.172;6.974;2024-03-22T11:42:53;11.00;99.90
52513;DHT22;38422;53.172;6.974;2024-03-22T11:45:20;11.00;99.90
52513;DHT22;38422;53.172;6.974;2024-03-22T11:47:47;11.00;99.90
52513;DHT22;38422;53.172;6.974;2024-03-22T11:50:13;11.10;99.90
52513;DHT22;38422;53.172;6.974;2024-03-22T11:52:42;11.10;99.90
52513;DHT22;38422;53.172;6.974;2024-03-22T11:55:11;11.10;99.90
52513;DHT22;38422;53.172;6.974;2024-03-22T11:57:37;11.00;99.90
52513;DHT22;38422;53.172;6.974;2024-03-22T12:00:04;11.00;99.90
52513;DHT22;38422;53.172;6.974;2024-03-22T12:02:35;11.00;99.90
52513;DHT22;38422;53.172;6.974;2024-03-22T12:05:02;11.00;99.90
52513;DHT22;38422;53.172;6.974;2024-03-22T12:07:28;11.00;99.90
52513;DHT22;38422;53.172;6.974;2024-03-22T12:09:54;11.00;99.90
52513;DHT22;38422;53.172;6.974;2024-03-22T12:12:22;10.90;99.90
52513;DHT22;38422;53.172;6.974;2024-03-22T12:14:48;10.90;99.90
52513;DHT22;38422;53.172;6.974;2024-03-22T12:17:16;10.90;99.90
52513;DHT22;38422;53.172;6.974;2024-03-22T12:19:42;11.00;99.90
52513;DHT22;38422;53.172;6.974;2024-03-22T12:22:08;10.90;99.90
52513;DHT22;38422;53.172;6.974;2024-03-22T12:24:33;10.90;99.90
52513;DHT22;38422;53.172;6.974;2024-03-22T12:26:59;10.90;99.90
52513;DHT22;38422;53.172;6.974;2024-03-22T12:29:25;10.90;99.90
52513;DHT22;38422;53.172;6.974;2024-03-22T12:31:51;10.90;99.90
52513;DHT22;38422;53.172;6.974;2024-03-22T12:34:17;10.90;99.90
52513;DHT22;38422;53.172;6.974;2024-03-22T12:36:43;11.00;99.90
52513;DHT22;38422;53.172;6.974;2024-03-22T12:39:09;10.90;99.90
52513;DHT22;38422;53.172;6.974;2024-03-22T12:41:34;10.90;99.90
52513;DHT22;38422;53.172;6.974;2024-03-22T12:44:00;10.90;99.90
52513;DHT22;38422;53.172;6.974;2024-03-22T12:46:26;10.90;99.90
52513;DHT22;38422;53.172;6.974;2024-03-22T12:48:53;11.00;99.90
52513;DHT22;38422;53.172;6.974;2024-03-22T12:51:19;11.10;99.90
52513;DHT22;38422;53.172;6.974;2024-03-22T12:53:45;11.10;99.90
52513;DHT22;38422;53.172;6.974;2024-03-22T12:56:11;11.10;99.90
52513;DHT22;38422;53.172;6.974;2024-03-22T12:58:37;11.00;99.90
52513;DHT22;38422;53.172;6.974;2024-03-22T13:01:03;11.00;99.90
52513;DHT22;38422;53.172;6.974;2024-03-22T13:03:34;11.00;99.90
52513;DHT22;38422;53.172;6.974;2024-03-22T13:05:59;10.90;99.90
52513;DHT22;38422;53.172;6.974;2024-03-22T13:08:25;10.90;99.90
52513;DHT22;38422;53.172;6.974;2024-03-22T13:10:51;10.90;99.90
52513;DHT22;38422;53.172;6.974;2024-03-22T13:13:18;11.00;99.90
52513;DHT22;38422;53.172;6.974;2024-03-22T13:15:43;11.00;99.90
52513;DHT22;38422;53.172;6.974;2024-03-22T13:18:13;11.10;99.90
52513;DHT22;38422;53.172;6.974;2024-03-22T13:20:38;11.10;99.90
52513;DHT22;38422;53.172;6.974;2024-03-22T13:23:04;11.00;99.90
52513;DHT22;38422;53.172;6.974;2024-03-22T13:25:30;10.90;99.90
52513;DHT22;38422;53.172;6.974;2024-03-22T13:27:56;10.90;99.90
52513;DHT22;38422;53.172;6.974;2024-03-22T13:30:23;10.90;99.90
52513;DHT22;38422;53.172;6.974;2024-03-22T13:32:48;10.90;99.90
52513;DHT22;38422;53.172;6.974;2024-03-22T13:35:14;11.00;99.90
52513;DHT22;38422;53.172;6.974;2024-03-22T13:37:43;11.00;99.90
52513;DHT22;38422;53.172;6.974;2024-03-22T13:40:09;11.00;99.90
52513;DHT22;38422;53.172;6.974;2024-03-22T13:42:34;11.10;99.90
52513;DHT22;38422;53.172;6.974;2024-03-22T13:45:00;11.10;99.90
52513;DHT22;38422;53.172;6.974;2024-03-22T13:47:26;11.20;99.90
52513;DHT22;38422;53.172;6.974;2024-03-22T13:49:55;11.20;99.90
52513;DHT22;38422;53.172;6.974;2024-03-22T13:52:21;11.20;99.90
52513;DHT22;38422;53.172;6.974;2024-03-22T13:54:47;11.20;99.90
52513;DHT22;38422;53.172;6.974;2024-03-22T13:57:13;11.10;99.90
52513;DHT22;38422;53.172;6.974;2024-03-22T13:59:38;11.10;99.90
52513;DHT22;38422;53.172;6.974;2024-03-22T14:02:06;11.10;99.90
52513;DHT22;38422;53.172;6.974;2024-03-22T14:04:33;11.10;99.90
52513;DHT22;38422;53.172;6.974;2024-03-22T14:06:59;11.00;99.90
52513;DHT22;38422;53.172;6.974;2024-03-22T14:09:33;11.00;99.90
52513;DHT22;38422;53.172;6.974;2024-03-22T14:11:58;11.00;99.90
52513;DHT22;38422;53.172;6.974;2024-03-22T14:14:25;11.00;99.90
52513;DHT22;38422;53.172;6.974;2024-03-22T14:16:52;10.90;99.90
52513;DHT22;38422;53.172;6.974;2024-03-22T14:19:17;10.90;99.90
52513;DHT22;38422;53.172;6.974;2024-03-22T14:21:45;10.80;99.90
52513;DHT22;38422;53.172;6.974;2024-03-22T14:24:12;10.80;99.90
52513;DHT22;38422;53.172;6.974;2024-03-22T14:26:38;10.70;99.90
52513;DHT22;38422;53.172;6.974;2024-03-22T14:29:11;10.70;99.90
52513;DHT22;38422;53.172;6.974;2024-03-22T14:31:37;10.70;99.90
52513;DHT22;38422;53.172;6.974;2024-03-22T14:34:05;10.80;99.90
52513;DHT22;38422;53.172;6.974;2024-03-22T14:36:31;10.80;99.90
52513;DHT22;38422;53.172;6.974;2024-03-22T14:38:57;10.90;99.90
52513;DHT22;38422;53.172;6.974;2024-03-22T14:41:24;10.90;99.90
52513;DHT22;38422;53.172;6.974;2024-03-22T14:43:49;10.90;99.90
52513;DHT22;38422;53.172;6.974;2024-03-22T14:46:16;10.90;99.90
52513;DHT22;38422;53.172;6.974;2024-03-22T14:48:44;11.00;99.90
52513;DHT22;38422;53.172;6.974;2024-03-22T14:51:10;11.00;99.90
52513;DHT22;38422;53.172;6.974;2024-03-22T14:53:35;11.00;99.90
52513;DHT22;38422;53.172;6.974;2024-03-22T14:56:02;10.90;99.90
52513;DHT22;38422;53.172;6.974;2024-03-22T14:58:32;10.90;99.90
52513;DHT22;38422;53.172;6.974;2024-03-22T15:01:02;10.90;99.90
52513;DHT22;38422;53.172;6.974;2024-03-22T15:03:28;10.90;99.90
52513;DHT22;38422;53.172;6.974;2024-03-22T15:05:55;10.90;99.90
52513;DHT22;38422;53.172;6.974;2024-03-22T15:08:21;10.90;99.90
52513;DHT22;38422;53.172;6.974;2024-03-22T15:10:48;10.90;99.90
52513;DHT22;38422;53.172;6.974;2024-03-22T15:13:14;10.80;99.90
52513;DHT22;38422;53.172;6.974;2024-03-22T15:15:40;10.70;99.90
52513;DHT22;38422;53.172;6.974;2024-03-22T15:18:07;10.70;99.90
52513;DHT22;38422;53.172;6.974;2024-03-22T15:20:33;10.60;99.90
52513;DHT22;38422;53.172;6.974;2024-03-22T15:23:00;10.50;99.90
52513;DHT22;38422;53.172;6.974;2024-03-22T15:25:26;10.50;99.90
52513;DHT22;38422;53.172;6.974;2024-03-22T15:27:52;10.40;99.90
52513;DHT22;38422;53.172;6.974;2024-03-22T15:30:18;10.40;99.90